createdAt,value
2024-02-29T00:00:15.835Z,95757.13
2024-02-29T00:02:43.605Z,95740.50
2024-02-29T00:05:12.903Z,95745.59
2024-02-29T00:07:40.963Z,95757.34
2024-02-29T00:10:10.367Z,95760.31
2024-02-29T00:12:39.744Z,95759.06
2024-02-29T00:15:09.900Z,95755.69
2024-02-29T00:17:37.698Z,95756.50
2024-02-29T00:20:10.176Z,95754.13
2024-02-29T00:22:38.004Z,95761.31
2024-02-29T00:25:07.144Z,95765.34
2024-02-29T00:27:35.002Z,95765.34
2024-02-29T00:30:02.764Z,95757.88
2024-02-29T00:32:31.862Z,95758.88
2024-02-29T00:34:59.576Z,95760.97
2024-02-29T00:37:29.462Z,95756.59
2024-02-29T00:39:59.441Z,95758.59
2024-02-29T00:42:27.313Z,95755.22
2024-02-29T00:44:55.064Z,95749.06
2024-02-29T00:47:22.814Z,95753.44
2024-02-29T00:49:52.440Z,95754.59
2024-02-29T00:52:20.196Z,95730.88
2024-02-29T00:54:48.095Z,95751.94
2024-02-29T00:57:15.848Z,95756.97
2024-02-29T00:59:43.808Z,95745.97
2024-02-29T01:07:46.903Z,95733.59
2024-02-29T01:10:15.240Z,95734.13
2024-02-29T01:12:43.905Z,95728.22
2024-02-29T01:15:12.793Z,95728.59
2024-02-29T01:17:42.036Z,95714.69
2024-02-29T01:20:11.304Z,95719.03
2024-02-29T01:22:39.122Z,95716.88
2024-02-29T01:25:09.213Z,95716.03
2024-02-29T01:27:37.082Z,95710.13
2024-02-29T01:30:05.259Z,95707.22
2024-02-29T01:32:35.513Z,95701.84
2024-02-29T01:35:05.832Z,95694.97
2024-02-29T01:37:33.532Z,95687.06
2024-02-29T01:40:01.177Z,95682.75
2024-02-29T01:42:30.287Z,95678.84
2024-02-29T01:44:58.425Z,95676.03
2024-02-29T01:47:27.538Z,95667.22
2024-02-29T01:49:59.032Z,95675.78
2024-02-29T01:52:30.642Z,95668.03
2024-02-29T01:54:59.394Z,95661.13
2024-02-29T01:57:27.755Z,95669.97
2024-02-29T01:59:56.887Z,95665.13
2024-02-29T02:02:25.085Z,95657.75
2024-02-29T02:04:53.088Z,95637.78
2024-02-29T02:07:21.025Z,95654.03
2024-02-29T02:09:48.781Z,95660.13
2024-02-29T02:12:16.533Z,95662.22
2024-02-29T02:14:45.626Z,95657.75
2024-02-29T02:17:14.744Z,95655.94
2024-02-29T02:19:43.831Z,95648.03
2024-02-29T02:22:12.943Z,95648.88
2024-02-29T02:24:40.754Z,95648.66
2024-02-29T02:27:08.547Z,95637.47
2024-02-29T02:29:36.332Z,95638.03
2024-02-29T02:32:04.208Z,95631.16
2024-02-29T02:34:31.871Z,95630.94
2024-02-29T02:36:59.459Z,95630.13
2024-02-29T02:39:28.654Z,95618.78
2024-02-29T02:41:56.374Z,95623.13
2024-02-29T02:44:23.864Z,95623.88
2024-02-29T02:46:51.846Z,95618.41
2024-02-29T02:49:19.546Z,95604.16
2024-02-29T02:51:47.136Z,95618.59
2024-02-29T02:54:14.952Z,95620.41
2024-02-29T02:56:43.883Z,95619.50
2024-02-29T02:59:11.860Z,95604.31
2024-02-29T03:01:39.684Z,95613.13
2024-02-29T03:04:07.566Z,95607.75
2024-02-29T03:06:35.401Z,95613.47
2024-02-29T03:09:03.668Z,95602.31
2024-02-29T03:11:31.505Z,95602.31
2024-02-29T03:14:00.678Z,95603.41
2024-02-29T03:16:29.049Z,95599.16
2024-02-29T03:18:56.981Z,95603.41
2024-02-29T03:21:24.904Z,95603.97
2024-02-29T03:23:53.020Z,95592.31
2024-02-29T03:26:20.848Z,95590.41
2024-02-29T03:28:48.591Z,95590.22
2024-02-29T03:31:17.740Z,95595.06
2024-02-29T03:33:45.614Z,95597.50
2024-02-29T03:36:13.577Z,95590.34
2024-02-29T03:38:41.751Z,95594.66
2024-02-29T03:41:11.403Z,95589.16
2024-02-29T03:43:39.230Z,95600.56
2024-02-29T03:46:07.010Z,95588.50
2024-02-29T03:48:37.104Z,95594.41
2024-02-29T03:51:05.235Z,95580.84
2024-02-29T03:53:32.964Z,95581.88
2024-02-29T03:56:00.546Z,95588.34
2024-02-29T03:58:28.250Z,95590.16
2024-02-29T04:00:55.955Z,95582.69
2024-02-29T04:03:23.750Z,95578.78
2024-02-29T04:05:53.239Z,95570.69
2024-02-29T04:08:21.051Z,95573.56
2024-02-29T04:10:50.339Z,95568.88
2024-02-29T04:13:19.219Z,95547.88
2024-02-29T04:15:49.922Z,95560.78
2024-02-29T04:18:18.137Z,95550.75
2024-02-29T04:20:46.113Z,95554.75
2024-02-29T04:23:15.313Z,95547.59
2024-02-29T04:25:46.218Z,95552.00
2024-02-29T04:28:15.842Z,95542.25
2024-02-29T04:30:44.235Z,95543.25
2024-02-29T04:33:13.331Z,95544.16
2024-02-29T04:35:41.258Z,95536.19
2024-02-29T04:38:09.102Z,95543.53
2024-02-29T04:40:38.391Z,95534.81
2024-02-29T04:43:06.414Z,95530.34
2024-02-29T04:45:34.380Z,95528.50
2024-02-29T04:48:02.246Z,95517.84
2024-02-29T04:50:30.100Z,95528.50
2024-02-29T04:52:57.816Z,95526.25
2024-02-29T04:55:25.518Z,95524.88
2024-02-29T04:57:54.414Z,95524.78
2024-02-29T05:00:22.369Z,95523.41
2024-02-29T05:02:50.063Z,95524.13
2024-02-29T05:05:17.654Z,95522.50
2024-02-29T05:07:45.525Z,95521.47
2024-02-29T05:10:13.862Z,95529.53
2024-02-29T05:12:41.635Z,95520.38
2024-02-29T05:15:10.444Z,95520.53
2024-02-29T05:17:38.813Z,95523.34
2024-02-29T05:20:07.885Z,95523.19
2024-02-29T05:22:39.620Z,95517.63
2024-02-29T05:25:09.356Z,95517.72
2024-02-29T05:27:37.457Z,95519.34
2024-02-29T05:30:05.819Z,95493.66
2024-02-29T05:32:35.162Z,95517.34
2024-02-29T05:35:02.923Z,95513.91
2024-02-29T05:37:31.132Z,95517.41
2024-02-29T05:40:00.904Z,95512.69
2024-02-29T05:42:29.585Z,95494.94
2024-02-29T05:44:57.818Z,95508.63
2024-02-29T05:47:25.752Z,95507.19
2024-02-29T05:49:56.134Z,95512.06
2024-02-29T05:52:24.266Z,95503.53
2024-02-29T05:54:52.028Z,95508.81
2024-02-29T05:57:19.809Z,95502.97
2024-02-29T05:59:47.522Z,95501.97
2024-02-29T06:02:15.248Z,95504.63
2024-02-29T06:04:43.002Z,95505.03
2024-02-29T06:07:12.187Z,95506.44
2024-02-29T06:09:41.241Z,95490.16
2024-02-29T06:12:09.197Z,95501.16
2024-02-29T06:14:37.160Z,95495.81
2024-02-29T06:17:04.981Z,95504.34
2024-02-29T06:19:34.347Z,95501.97
2024-02-29T06:22:02.267Z,95513.03
2024-02-29T06:24:31.344Z,95502.22
2024-02-29T06:26:59.099Z,95501.41
2024-02-29T06:29:26.842Z,95498.59
2024-02-29T06:31:54.587Z,95501.47
2024-02-29T06:34:22.607Z,95495.75
2024-02-29T06:36:50.756Z,95499.84
2024-02-29T06:39:18.475Z,95490.94
2024-02-29T06:41:47.742Z,95486.22
2024-02-29T06:44:16.353Z,95494.06
2024-02-29T06:46:44.056Z,95491.94
2024-02-29T06:49:11.823Z,95491.38
2024-02-29T06:51:39.603Z,95490.44
2024-02-29T06:54:07.403Z,95487.97
2024-02-29T06:56:35.144Z,95488.09
2024-02-29T06:59:05.311Z,95492.06
2024-02-29T07:01:34.004Z,95480.69
2024-02-29T07:04:01.901Z,95487.06
2024-02-29T07:06:29.795Z,95483.22
2024-02-29T07:08:57.547Z,95487.34
2024-02-29T07:11:27.055Z,95486.63
2024-02-29T07:13:54.912Z,95483.13
2024-02-29T07:16:24.111Z,95477.59
2024-02-29T07:18:52.275Z,95473.78
2024-02-29T07:21:20.045Z,95467.97
2024-02-29T07:23:47.857Z,95475.03
2024-02-29T07:26:15.536Z,95476.25
2024-02-29T07:28:43.004Z,95468.69
2024-02-29T07:31:10.785Z,95469.22
2024-02-29T07:33:39.897Z,95458.00
2024-02-29T07:36:07.873Z,95463.94
2024-02-29T07:38:35.644Z,95461.72
2024-02-29T07:41:03.350Z,95460.38
2024-02-29T07:43:31.085Z,95463.38
2024-02-29T07:45:58.958Z,95458.00
2024-02-29T07:48:28.243Z,95458.25
2024-02-29T07:50:57.423Z,95456.53
2024-02-29T07:53:25.207Z,95457.28
2024-02-29T07:55:52.971Z,95456.03
2024-02-29T07:58:20.874Z,95461.06
2024-02-29T08:00:48.886Z,95454.06
2024-02-29T08:03:16.672Z,95455.56
2024-02-29T08:05:44.506Z,95455.84
2024-02-29T08:08:13.583Z,95454.16
2024-02-29T08:10:41.465Z,95450.75
2024-02-29T08:13:09.243Z,95454.47
2024-02-29T08:15:37.045Z,95448.97
2024-02-29T08:18:05.079Z,95446.91
2024-02-29T08:20:32.954Z,95439.09
2024-02-29T08:23:00.689Z,95440.59
2024-02-29T08:25:31.826Z,95443.28
2024-02-29T08:28:01.763Z,95434.09
2024-02-29T08:30:29.474Z,95424.78
2024-02-29T08:32:57.857Z,95430.38
2024-02-29T08:35:25.678Z,95426.91
2024-02-29T08:37:54.654Z,95424.72
2024-02-29T08:40:22.799Z,95424.63
2024-02-29T08:42:52.694Z,95418.53
2024-02-29T08:45:21.963Z,95403.78
2024-02-29T08:47:50.711Z,95401.56
2024-02-29T08:50:18.594Z,95413.41
2024-02-29T08:52:46.548Z,95402.22
2024-02-29T08:55:14.405Z,95399.16
2024-02-29T08:57:42.159Z,95400.78
2024-02-29T09:00:12.879Z,95390.00
2024-02-29T09:02:40.611Z,95387.97
2024-02-29T09:05:09.332Z,95386.56
2024-02-29T09:07:37.344Z,95377.78
2024-02-29T09:10:05.831Z,95370.88
2024-02-29T09:12:33.844Z,95371.50
2024-02-29T09:15:03.500Z,95369.66
2024-02-29T09:17:32.619Z,95366.59
2024-02-29T09:20:00.639Z,95364.56
2024-02-29T09:22:28.348Z,95342.59
2024-02-29T09:24:56.172Z,95361.09
2024-02-29T09:27:24.068Z,95355.63
2024-02-29T09:29:52.173Z,95348.91
2024-02-29T09:32:20.313Z,95351.34
2024-02-29T09:34:52.119Z,95336.47
2024-02-29T09:37:20.451Z,95339.75
2024-02-29T09:39:48.310Z,95334.44
2024-02-29T09:42:17.034Z,95337.69
2024-02-29T09:44:45.649Z,95337.66
2024-02-29T09:47:14.679Z,95330.56
2024-02-29T09:49:44.813Z,95330.75
2024-02-29T09:52:15.785Z,95318.34
2024-02-29T09:54:44.494Z,95323.41
2024-02-29T09:57:13.140Z,95321.59
2024-02-29T09:59:43.753Z,95315.31
2024-02-29T10:02:16.947Z,95322.59
2024-02-29T10:04:45.158Z,95322.81
2024-02-29T10:07:13.063Z,95314.44
2024-02-29T10:09:42.204Z,95315.41
2024-02-29T10:12:10.075Z,95318.13
2024-02-29T10:14:37.777Z,95311.00
2024-02-29T10:17:06.150Z,95308.94
2024-02-29T10:19:34.590Z,95301.03
2024-02-29T10:22:02.364Z,95303.84
2024-02-29T10:24:30.126Z,95310.91
2024-02-29T10:27:03.996Z,95303.63
2024-02-29T10:29:32.769Z,95295.63
2024-02-29T10:32:00.806Z,95291.94
2024-02-29T10:34:28.643Z,95292.59
2024-02-29T10:36:57.030Z,95288.09
2024-02-29T10:39:24.752Z,95292.22
2024-02-29T10:41:53.447Z,95284.00
2024-02-29T10:44:24.017Z,95283.59
2024-02-29T10:46:52.370Z,95274.44
2024-02-29T10:49:28.680Z,95273.03
2024-02-29T10:52:03.414Z,95269.47
2024-02-29T10:54:39.861Z,95268.31
2024-02-29T10:57:15.622Z,95266.53
2024-02-29T10:59:53.494Z,95269.31
2024-02-29T11:02:22.030Z,95240.06
2024-02-29T11:04:50.065Z,95254.75
2024-02-29T11:07:18.761Z,95248.53
2024-02-29T11:09:46.619Z,95249.19
2024-02-29T11:12:15.884Z,95241.91
2024-02-29T11:14:46.533Z,95236.31
2024-02-29T11:17:15.464Z,95230.78
2024-02-29T11:19:51.402Z,95231.38
2024-02-29T11:22:33.759Z,95226.16
2024-02-29T11:25:02.128Z,95217.25
2024-02-29T11:27:34.868Z,95213.16
2024-02-29T11:30:05.598Z,95202.53
2024-02-29T11:32:35.046Z,95209.34
2024-02-29T11:35:04.090Z,95211.63
2024-02-29T11:37:35.119Z,95195.91
2024-02-29T11:40:05.670Z,95201.81
2024-02-29T11:42:33.806Z,95198.03
2024-02-29T11:45:01.566Z,95202.44
2024-02-29T11:47:30.672Z,95199.44
2024-02-29T11:50:01.901Z,95184.72
2024-02-29T11:52:29.966Z,95180.97
2024-02-29T11:54:57.855Z,95177.81
2024-02-29T11:57:25.675Z,95181.44
2024-02-29T11:59:56.367Z,95169.13
2024-02-29T12:02:24.490Z,95163.56
2024-02-29T12:04:53.577Z,95157.28
2024-02-29T12:07:21.933Z,95154.19
2024-02-29T12:09:49.823Z,95150.47
2024-02-29T12:12:17.680Z,95144.72
2024-02-29T12:14:47.020Z,95138.13
2024-02-29T12:17:14.923Z,95143.72
2024-02-29T12:19:42.629Z,95138.13
2024-02-29T12:22:15.465Z,95138.59
2024-02-29T12:24:44.261Z,95127.84
2024-02-29T12:27:12.340Z,95122.13
2024-02-29T12:29:42.336Z,95123.31
2024-02-29T12:32:12.580Z,95113.63
2024-02-29T12:34:44.385Z,95111.41
2024-02-29T12:37:13.037Z,95106.59
2024-02-29T12:39:43.334Z,95098.78
2024-02-29T12:42:12.348Z,95089.34
2024-02-29T12:44:40.657Z,95090.97
2024-02-29T12:47:08.328Z,95081.56
2024-02-29T12:49:36.018Z,95086.91
2024-02-29T12:52:03.732Z,95074.53
2024-02-29T12:54:32.298Z,95076.50
2024-02-29T12:57:01.683Z,95063.88
2024-02-29T12:59:29.455Z,95065.38
2024-02-29T13:01:58.085Z,95058.13
2024-02-29T13:04:26.049Z,95055.09
2024-02-29T13:06:53.073Z,95048.75
2024-02-29T13:09:21.604Z,95041.59
2024-02-29T13:11:49.411Z,95040.63
2024-02-29T13:14:18.696Z,95039.34
2024-02-29T13:16:46.548Z,95037.56
2024-02-29T13:19:16.165Z,95028.31
2024-02-29T13:21:44.792Z,95030.75
2024-02-29T13:24:12.758Z,95021.38
2024-02-29T13:26:40.556Z,95013.41
2024-02-29T13:29:08.239Z,95008.97
2024-02-29T13:31:37.717Z,95012.84
2024-02-29T13:34:05.550Z,94999.41
2024-02-29T13:36:33.311Z,94998.00
2024-02-29T13:39:01.061Z,94991.75
2024-02-29T13:41:28.801Z,94989.03
2024-02-29T13:43:56.528Z,94992.41
2024-02-29T13:46:24.283Z,94986.84
2024-02-29T13:48:53.723Z,94980.63
2024-02-29T13:51:21.963Z,94974.72
2024-02-29T13:53:49.716Z,94967.38
2024-02-29T13:56:19.629Z,94967.75
2024-02-29T13:58:49.621Z,94977.25
2024-02-29T14:01:18.522Z,94973.00
2024-02-29T14:03:47.201Z,94965.31
2024-02-29T14:06:16.376Z,94969.00
2024-02-29T14:08:44.114Z,94957.13
2024-02-29T14:11:11.885Z,94954.13
2024-02-29T14:13:40.723Z,94959.53
2024-02-29T14:16:08.735Z,94952.38
2024-02-29T14:18:38.722Z,94956.66
2024-02-29T14:21:06.826Z,94952.28
2024-02-29T14:23:35.837Z,94951.13
2024-02-29T14:26:03.738Z,94943.38
2024-02-29T14:28:31.587Z,94935.97
2024-02-29T14:31:00.298Z,94936.47
2024-02-29T14:33:28.824Z,94931.69
2024-02-29T14:35:56.674Z,94932.63
2024-02-29T14:38:24.443Z,94927.06
2024-02-29T14:40:53.458Z,94927.63
2024-02-29T14:43:21.622Z,94917.50
2024-02-29T14:45:49.671Z,94914.03
2024-02-29T14:48:17.498Z,94901.44
2024-02-29T14:50:45.417Z,94900.16
2024-02-29T14:53:13.152Z,94898.19
2024-02-29T14:55:42.533Z,94891.59
2024-02-29T14:58:11.860Z,94890.13
2024-02-29T15:00:40.292Z,94885.50
2024-02-29T15:03:07.996Z,94894.91
2024-02-29T15:05:36.041Z,94893.81
2024-02-29T15:08:06.513Z,94892.50
2024-02-29T15:10:34.344Z,94890.34
2024-02-29T15:13:02.092Z,94886.63
2024-02-29T15:15:31.116Z,94883.38
2024-02-29T15:17:59.104Z,94884.69
2024-02-29T15:20:26.808Z,94878.00
2024-02-29T15:22:54.541Z,94889.75
2024-02-29T15:25:25.213Z,94882.22
2024-02-29T15:27:55.207Z,94878.78
2024-02-29T15:30:23.069Z,94873.44
2024-02-29T15:32:52.583Z,94866.78
2024-02-29T15:35:20.327Z,94855.69
2024-02-29T15:37:48.138Z,94855.81
2024-02-29T15:40:15.982Z,94860.53
2024-02-29T15:42:43.911Z,94851.31
2024-02-29T15:45:13.875Z,94845.78
2024-02-29T15:47:42.041Z,94833.41
2024-02-29T15:50:11.631Z,94838.13
2024-02-29T15:52:39.886Z,94843.28
2024-02-29T15:55:08.680Z,94833.25
2024-02-29T15:57:36.619Z,94830.06
2024-02-29T16:00:06.517Z,94829.94
2024-02-29T16:02:34.561Z,94827.63
2024-02-29T16:05:02.790Z,94825.88
2024-02-29T16:07:31.968Z,94823.81
2024-02-29T16:09:59.918Z,94819.50
2024-02-29T16:12:28.251Z,94815.88
2024-02-29T16:14:56.531Z,94806.75
2024-02-29T16:17:26.124Z,94811.50
2024-02-29T16:19:54.105Z,94807.16
2024-02-29T16:22:21.863Z,94800.88
2024-02-29T16:24:52.559Z,94804.34
2024-02-29T16:27:20.467Z,94802.44
2024-02-29T16:29:48.259Z,94796.44
2024-02-29T16:32:18.143Z,94793.31
2024-02-29T16:34:45.890Z,94803.63
2024-02-29T16:37:13.785Z,94800.22
2024-02-29T16:39:41.681Z,94797.09
2024-02-29T16:42:11.452Z,94799.94
2024-02-29T16:44:39.254Z,94792.19
2024-02-29T16:47:07.510Z,94794.66
2024-02-29T16:49:35.536Z,94796.38
2024-02-29T16:52:03.792Z,94792.56
2024-02-29T16:54:31.539Z,94785.03
2024-02-29T16:56:59.645Z,94787.53
2024-02-29T16:59:28.722Z,94790.97
2024-02-29T17:01:56.599Z,94796.25
2024-02-29T17:04:24.391Z,94780.38
2024-02-29T17:06:52.661Z,94783.50
2024-02-29T17:09:20.665Z,94779.53
2024-02-29T17:11:48.938Z,94776.00
2024-02-29T17:14:16.638Z,94779.91
2024-02-29T17:16:45.784Z,94775.09
2024-02-29T17:19:13.689Z,94772.09
2024-02-29T17:21:42.956Z,94787.03
2024-02-29T17:24:10.860Z,94781.16
2024-02-29T17:26:38.591Z,94776.88
2024-02-29T17:29:06.328Z,94778.06
2024-02-29T17:31:34.014Z,94773.31
2024-02-29T17:34:03.259Z,94773.56
2024-02-29T17:36:31.006Z,94762.72
2024-02-29T17:38:58.902Z,94766.81
2024-02-29T17:41:26.572Z,94760.94
2024-02-29T17:43:54.288Z,94769.69
2024-02-29T17:46:21.982Z,94760.44
2024-02-29T17:48:49.845Z,94758.44
2024-02-29T17:51:18.949Z,94759.28
2024-02-29T17:53:46.741Z,94763.97
2024-02-29T17:56:14.698Z,94734.38
2024-02-29T17:58:42.461Z,94751.25
2024-02-29T18:01:10.303Z,94755.13
2024-02-29T18:03:40.933Z,94751.53
2024-02-29T18:06:09.266Z,94736.31
2024-02-29T18:08:38.419Z,94749.31
2024-02-29T18:11:06.321Z,94746.72
2024-02-29T18:13:34.116Z,94741.44
2024-02-29T18:16:02.005Z,94737.22
2024-02-29T18:18:29.880Z,94735.59
2024-02-29T18:20:57.909Z,94725.44
2024-02-29T18:23:25.678Z,94733.63
2024-02-29T18:25:56.698Z,94721.44
2024-02-29T18:28:24.669Z,94727.56
2024-02-29T18:30:52.559Z,94724.94
2024-02-29T18:33:20.391Z,94721.91
2024-02-29T18:35:48.134Z,94723.53
2024-02-29T18:38:15.839Z,94720.69
2024-02-29T18:40:44.772Z,94709.78
2024-02-29T18:43:13.989Z,94712.81
2024-02-29T18:45:41.741Z,94715.88
2024-02-29T18:48:09.578Z,94719.31
2024-02-29T18:50:37.296Z,94707.78
2024-02-29T18:53:07.975Z,94708.22
2024-02-29T18:55:36.947Z,94707.81
2024-02-29T18:58:04.676Z,94703.97
2024-02-29T19:00:33.753Z,94709.25
2024-02-29T19:03:02.540Z,94703.59
2024-02-29T19:05:30.329Z,94706.22
2024-02-29T19:07:57.869Z,94697.69
2024-02-29T19:10:26.229Z,94694.84
2024-02-29T19:12:54.096Z,94702.13
2024-02-29T19:15:22.116Z,94686.16
2024-02-29T19:17:51.250Z,94693.84
2024-02-29T19:20:18.937Z,94698.72
2024-02-29T19:22:46.664Z,94701.34
2024-02-29T19:25:14.205Z,94698.13
2024-02-29T19:27:42.232Z,94701.34
2024-02-29T19:30:11.706Z,94695.84
2024-02-29T19:32:39.515Z,94696.69
2024-02-29T19:35:09.265Z,94691.81
2024-02-29T19:37:36.996Z,94694.25
2024-02-29T19:40:04.842Z,94687.56
2024-02-29T19:42:34.626Z,94685.94
2024-02-29T19:45:04.769Z,94683.47
2024-02-29T19:47:32.671Z,94671.75
2024-02-29T19:50:01.273Z,94680.25
2024-02-29T19:52:34.566Z,94678.03
2024-02-29T19:55:06.138Z,94669.09
2024-02-29T19:57:34.897Z,94666.66
2024-02-29T20:00:06.295Z,94662.00
2024-02-29T20:02:34.052Z,94661.19
2024-02-29T20:05:01.620Z,94661.19
2024-02-29T20:07:31.483Z,94656.31
2024-02-29T20:09:59.302Z,94648.84
2024-02-29T20:12:27.267Z,94651.66
2024-02-29T20:14:55.086Z,94649.59
2024-02-29T20:17:23.480Z,94639.69
2024-02-29T20:19:51.516Z,94647.78
2024-02-29T20:22:19.260Z,94647.28
2024-02-29T20:24:48.502Z,94659.66
2024-02-29T20:27:16.343Z,94659.63
2024-02-29T20:29:44.647Z,94646.91
2024-02-29T20:32:14.845Z,94650.31
2024-02-29T20:34:42.512Z,94660.19
2024-02-29T20:37:10.930Z,94651.72
2024-02-29T20:39:39.004Z,94646.22
2024-02-29T20:42:08.264Z,94650.47
2024-02-29T20:44:36.827Z,94642.59
2024-02-29T20:47:05.429Z,94644.84
2024-02-29T20:49:33.203Z,94643.59
2024-02-29T20:52:01.235Z,94641.34
2024-02-29T20:54:29.775Z,94630.63
2024-02-29T20:56:57.546Z,94640.94
2024-02-29T20:59:28.232Z,94640.94
2024-02-29T21:01:56.371Z,94641.91
2024-02-29T21:04:24.337Z,94623.88
2024-02-29T21:06:52.065Z,94632.75
2024-02-29T21:09:19.768Z,94635.38
2024-02-29T21:11:47.483Z,94627.97
2024-02-29T21:14:15.014Z,94628.75
2024-02-29T21:16:44.130Z,94618.22
2024-02-29T21:19:12.108Z,94622.63
2024-02-29T21:21:39.900Z,94616.53
2024-02-29T21:24:07.920Z,94619.56
2024-02-29T21:26:35.582Z,94613.66
2024-02-29T21:29:04.058Z,94610.19
2024-02-29T21:31:31.835Z,94612.00
2024-02-29T21:34:00.827Z,94608.31
2024-02-29T21:36:28.547Z,94604.13
2024-02-29T21:38:56.225Z,94597.69
2024-02-29T21:41:23.948Z,94598.03
2024-02-29T21:43:51.625Z,94586.53
2024-02-29T21:46:19.444Z,94593.81
2024-02-29T21:48:47.389Z,94585.72
2024-02-29T21:51:19.756Z,94587.38
2024-02-29T21:53:47.851Z,94581.72
2024-02-29T21:56:16.112Z,94579.47
2024-02-29T21:58:44.382Z,94576.97
2024-02-29T22:01:12.904Z,94572.72
2024-02-29T22:03:41.278Z,94556.31
2024-02-29T22:06:09.374Z,94556.50
2024-02-29T22:08:38.440Z,94553.25
2024-02-29T22:11:06.281Z,94553.59
2024-02-29T22:13:33.774Z,94553.41
2024-02-29T22:16:01.516Z,94547.44
2024-02-29T22:18:29.302Z,94540.31
2024-02-29T22:20:57.072Z,94549.94
2024-02-29T22:23:24.647Z,94546.47
2024-02-29T22:25:55.518Z,94547.44
2024-02-29T22:28:23.315Z,94548.31
2024-02-29T22:30:50.838Z,94546.69
2024-02-29T22:33:18.951Z,94536.72
2024-02-29T22:35:47.079Z,94539.34
2024-02-29T22:38:15.542Z,94542.31
2024-02-29T22:40:43.416Z,94540.91
2024-02-29T22:43:13.497Z,94536.59
2024-02-29T22:45:41.265Z,94535.50
2024-02-29T22:48:09.336Z,94537.06
2024-02-29T22:50:37.068Z,94530.22
2024-02-29T22:53:05.237Z,94526.97
2024-02-29T22:55:32.977Z,94525.44
2024-02-29T22:58:00.810Z,94526.47
2024-02-29T23:00:31.672Z,94528.88
2024-02-29T23:02:59.728Z,94526.00
2024-02-29T23:05:27.323Z,94517.28
2024-02-29T23:07:55.507Z,94514.56
2024-02-29T23:10:23.494Z,94512.13
2024-02-29T23:12:51.828Z,94511.22
2024-02-29T23:15:20.360Z,94509.53
2024-02-29T23:17:50.850Z,94509.53
2024-02-29T23:20:19.652Z,94499.66
2024-02-29T23:22:48.019Z,94509.84
2024-02-29T23:25:16.344Z,94515.47
2024-02-29T23:27:46.553Z,94524.94
2024-02-29T23:30:14.995Z,94512.00
2024-02-29T23:32:44.443Z,94511.34
2024-02-29T23:35:13.499Z,94504.22
2024-02-29T23:37:41.184Z,94500.84
2024-02-29T23:40:10.096Z,94499.41
2024-02-29T23:42:37.903Z,94502.63
2024-02-29T23:45:06.412Z,94511.13
2024-02-29T23:47:34.168Z,94505.38
2024-02-29T23:50:01.976Z,94499.47
2024-02-29T23:52:31.127Z,94503.22
2024-02-29T23:54:58.968Z,94507.25
2024-02-29T23:57:26.684Z,94506.78
2024-02-29T23:59:54.385Z,94510.84
